Time;durP1;ratioP1;P1;durP2;ratioP2;P2;SDS_P1;SDS_P2;PMS_P1;PMS_P2;Temp;Humidity;BMP_temperature;BMP_pressure;BME280_temperature;BME280_humidity;BME280_pressure;Samples;Min_cycle;Max_cycle;Signal;HPM_P1;HPM_P2
2022/06/19 00:02:20;;;;;;;4.70;1.98;;;;;;;17.89;63.48;99128.12;4485776;31;20088;-70
2022/06/19 00:04:50;;;;;;;2.83;2.00;;;;;;;17.96;62.44;99125.63;4484366;32;20092;-70
2022/06/19 00:07:18;;;;;;;3.12;2.05;;;;;;;18.03;62.63;99121.22;4484400;32;20096;-70
2022/06/19 00:09:46;;;;;;;2.70;2.00;;;;;;;18.05;62.97;99130.66;4485965;31;20430;-70
2022/06/19 00:12:15;;;;;;;2.70;2.28;;;;;;;18.13;62.64;99127.13;4485644;31;20108;-71
2022/06/19 00:14:42;;;;;;;4.10;1.85;;;;;;;18.16;62.96;99115.34;4485524;31;20093;-70
2022/06/19 00:17:09;;;;;;;3.33;2.22;;;;;;;18.23;62.42;99117.13;4485398;31;20100;-70
2022/06/19 00:19:37;;;;;;;3.75;2.10;;;;;;;18.28;62.28;99113.94;4485424;31;20191;-71
2022/06/19 00:22:04;;;;;;;2.47;1.75;;;;;;;18.33;62.19;99105.44;4485649;31;20873;-70
2022/06/19 00:24:31;;;;;;;2.03;1.70;;;;;;;18.34;61.98;99109.75;4485477;32;20110;-71
2022/06/19 00:26:58;;;;;;;3.12;1.95;;;;;;;18.42;61.61;99110.47;4485546;32;20113;-71
2022/06/19 00:29:27;;;;;;;1.92;1.80;;;;;;;18.43;61.93;99109.47;4485725;31;20438;-70
2022/06/19 00:31:55;;;;;;;2.85;2.10;;;;;;;18.53;62.18;99111.06;4485471;31;20142;-71
2022/06/19 00:34:23;;;;;;;2.62;2.05;;;;;;;18.46;62.35;99110.16;4485560;32;20084;-71
2022/06/19 00:36:51;;;;;;;2.90;2.12;;;;;;;18.39;62.74;99110.84;4485531;31;20413;-71
2022/06/19 00:39:19;;;;;;;2.17;1.90;;;;;;;18.47;62.36;99106.47;4485449;31;20145;-70
2022/06/19 00:41:47;;;;;;;5.30;2.15;;;;;;;18.47;63.20;99107.31;4485778;31;20100;-70
2022/06/19 00:44:15;;;;;;;5.15;2.00;;;;;;;18.48;62.57;99106.28;4485261;31;20389;-70
2022/06/19 00:46:54;;;;;;;4.53;2.15;;;;;;;18.45;62.45;99109.31;4485403;31;20104;-70
2022/06/19 00:49:27;;;;;;;3.50;2.70;;;;;;;18.45;62.46;99109.31;4483952;32;20104;-71
2022/06/19 00:52:00;;;;;;;2.90;2.20;;;;;;;18.44;62.50;99110.31;4485632;31;20143;-71
2022/06/19 00:54:30;;;;;;;4.18;2.08;;;;;;;18.45;62.41;99104.00;4483944;32;20114;-70
2022/06/19 00:56:57;;;;;;;2.60;2.08;;;;;;;18.40;62.97;99101.06;4484167;32;20091;-71
2022/06/19 00:59:24;;;;;;;2.72;1.90;;;;;;;18.40;62.54;99091.28;4485265;31;20092;-71
2022/06/19 01:01:52;;;;;;;4.62;2.10;;;;;;;18.42;62.54;99101.72;4485458;31;20089;-71
2022/06/19 01:04:24;;;;;;;4.15;2.05;;;;;;;18.43;63.01;99092.75;4485188;31;20126;-70
2022/06/19 01:06:51;;;;;;;4.18;2.28;;;;;;;18.37;62.78;99088.16;4485310;31;20359;-70
2022/06/19 01:09:18;;;;;;;2.53;2.12;;;;;;;18.35;62.91;99090.16;4484072;32;20122;-71
2022/06/19 01:11:45;;;;;;;2.25;1.95;;;;;;;18.41;62.84;99089.44;4485304;31;20516;-70
2022/06/19 01:14:15;;;;;;;2.53;2.10;;;;;;;18.29;63.17;99093.53;4485083;31;20131;-70
2022/06/19 01:16:42;;;;;;;6.40;2.62;;;;;;;18.27;63.24;99088.41;4485123;31;20438;-70
2022/06/19 01:19:16;;;;;;;4.45;2.10;;;;;;;18.27;63.51;99086.59;4484978;31;20083;-70
2022/06/19 01:21:57;;;;;;;4.07;2.45;;;;;;;18.27;63.62;99075.12;4483992;32;20107;-70
2022/06/19 01:25:04;;;;;;;3.10;2.10;;;;;;;18.32;63.09;99082.56;4484953;31;20080;-70
2022/06/19 01:30:23;;;;;;;3.15;2.40;;;;;;;18.19;63.95;99078.69;4485260;31;20096;-71
2022/06/19 01:32:51;;;;;;;3.45;2.00;;;;;;;18.21;64.01;99076.72;4469895;32;20104;-70
2022/06/19 01:35:21;;;;;;;3.42;1.98;;;;;;;18.22;64.08;99078.34;4468311;32;20405;-70
2022/06/19 01:37:49;;;;;;;4.68;2.33;;;;;;;18.19;64.25;99073.38;4468075;32;20101;-70
2022/06/19 01:40:22;;;;;;;5.03;2.30;;;;;;;18.11;64.54;99076.13;4468007;32;20610;-70
2022/06/19 01:42:49;;;;;;;3.47;2.25;;;;;;;18.23;64.38;99073.88;4468062;32;20115;-70
2022/06/19 01:45:17;;;;;;;4.72;2.03;;;;;;;18.21;64.39;99074.06;4467969;32;20116;-70
2022/06/19 01:47:45;;;;;;;3.15;2.20;;;;;;;18.22;64.43;99074.88;4469608;32;20470;-70
2022/06/19 01:50:16;;;;;;;3.53;2.75;;;;;;;18.13;64.80;99074.09;4469278;32;20119;-70
2022/06/19 01:52:43;;;;;;;3.62;2.42;;;;;;;18.09;65.18;99076.28;4469633;32;20111;-71
2022/06/19 01:55:14;;;;;;;3.10;2.28;;;;;;;18.07;65.41;99077.47;4469251;32;20097;-70
2022/06/19 01:57:44;;;;;;;2.92;2.10;;;;;;;18.08;65.38;99077.28;4467877;32;20124;-71
2022/06/19 02:00:17;;;;;;;2.95;2.12;;;;;;;18.11;65.16;99075.28;4468100;32;20105;-71
2022/06/19 02:02:49;;;;;;;2.78;2.40;;;;;;;18.09;65.45;99068.34;4469214;32;20081;-70
2022/06/19 02:05:18;;;;;;;4.43;2.10;;;;;;;18.01;65.78;99060.44;4469014;32;20149;-70
2022/06/19 02:07:46;;;;;;;5.70;2.20;;;;;;;17.93;65.93;99055.22;4469105;32;20411;-70
2022/06/19 02:10:13;;;;;;;3.22;2.33;;;;;;;17.90;66.34;99051.09;4469003;32;20085;-70
2022/06/19 02:12:40;;;;;;;3.70;2.75;;;;;;;17.86;66.69;99049.75;4467903;32;20482;-71
2022/06/19 02:15:10;;;;;;;4.65;1.98;;;;;;;17.83;66.95;99047.47;4468961;32;20097;-71
2022/06/19 02:17:49;;;;;;;3.10;2.40;;;;;;;17.81;67.07;99054.78;4469099;32;20165;-70
2022/06/19 02:20:19;;;;;;;3.40;2.35;;;;;;;17.75;67.44;99044.88;4467122;32;20154;-70
2022/06/19 02:22:46;;;;;;;2.62;2.22;;;;;;;17.74;67.51;99043.22;4468978;32;20100;-70
2022/06/19 02:25:14;;;;;;;4.32;2.33;;;;;;;17.74;67.91;99040.56;4469069;32;20097;-71
2022/06/19 02:27:41;;;;;;;5.72;2.55;;;;;;;17.69;68.00;99046.41;4468043;32;20158;-70
2022/06/19 02:30:11;;;;;;;5.00;2.62;;;;;;;17.64;68.34;99048.75;4467673;32;20104;-70
2022/06/19 02:32:42;;;;;;;3.97;2.20;;;;;;;17.68;68.17;99054.53;4481155;32;20112;-70
2022/06/19 02:35:15;;;;;;;3.65;2.55;;;;;;;17.65;68.31;99054.88;4484413;31;20107;-70
2022/06/19 02:37:46;;;;;;;3.95;2.20;;;;;;;17.61;68.27;99051.75;4484393;31;20096;-70
2022/06/19 02:40:32;;;;;;;5.47;2.62;;;;;;;17.63;68.14;99052.41;4484405;31;20092;-70
2022/06/19 02:42:59;;;;;;;2.95;2.15;;;;;;;17.62;68.38;99052.59;4484447;31;20449;-70
2022/06/19 02:45:29;;;;;;;3.12;2.47;;;;;;;17.59;68.46;99055.59;4484432;31;20089;-71
2022/06/19 02:47:58;;;;;;;2.37;2.10;;;;;;;17.55;68.54;99053.28;4484132;31;20409;-70
2022/06/19 02:50:28;;;;;;;2.50;2.30;;;;;;;17.52;68.87;99047.53;4484039;31;20114;-71
2022/06/19 02:52:56;;;;;;;2.95;2.30;;;;;;;17.52;69.33;99050.19;4484321;32;20392;-70
2022/06/19 02:55:23;;;;;;;2.83;2.53;;;;;;;17.48;69.39;99054.16;4484134;31;20080;-71
2022/06/19 02:57:51;;;;;;;2.33;1.87;;;;;;;17.44;69.90;99050.19;4484114;31;20568;-70
2022/06/19 03:00:22;;;;;;;3.85;2.30;;;;;;;17.40;70.56;99046.28;4484070;31;20152;-71
2022/06/19 03:02:52;;;;;;;3.42;2.25;;;;;;;17.33;71.02;99036.34;4484138;31;20092;-70
2022/06/19 03:05:22;;;;;;;2.80;2.20;;;;;;;17.27;71.50;99038.88;4484153;31;20084;-70
2022/06/19 03:07:50;;;;;;;3.05;2.00;;;;;;;17.25;71.35;99040.87;4483951;31;20152;-70
2022/06/19 03:10:17;;;;;;;2.78;2.30;;;;;;;17.23;71.97;99037.56;4483838;31;20097;-70
2022/06/19 03:12:45;;;;;;;4.12;2.20;;;;;;;17.24;71.85;99032.09;4483861;31;20124;-71
2022/06/19 03:15:12;;;;;;;4.05;2.20;;;;;;;17.22;72.13;99033.28;4484156;31;20092;-71
2022/06/19 03:17:40;;;;;;;3.78;2.83;;;;;;;17.25;71.30;99028.47;4483634;31;20110;-71
2022/06/19 03:20:11;;;;;;;4.05;2.37;;;;;;;17.34;71.58;99031.91;4483503;32;20127;-70
2022/06/19 03:22:38;;;;;;;2.55;2.30;;;;;;;17.56;70.53;99024.97;4483859;31;20088;-71
2022/06/19 03:25:06;;;;;;;3.08;2.33;;;;;;;17.78;69.99;99028.62;4483542;31;20111;-70
2022/06/19 03:27:33;;;;;;;3.55;2.40;;;;;;;17.97;69.69;99030.00;4483754;32;20161;-70
2022/06/19 03:30:00;;;;;;;6.75;2.45;;;;;;;18.13;68.88;99020.25;4483800;31;20115;-71
2022/06/19 03:32:27;;;;;;;3.20;2.35;;;;;;;18.31;69.33;99022.59;4483968;31;20112;-70
2022/06/19 03:34:55;;;;;;;3.17;2.30;;;;;;;18.47;68.10;99022.41;4485934;31;20100;-71
2022/06/19 03:37:23;;;;;;;3.47;2.50;;;;;;;18.63;66.94;99021.41;4485722;32;20158;-70
2022/06/19 03:39:50;;;;;;;2.58;2.37;;;;;;;18.85;67.05;99019.69;4485762;31;20513;-70
2022/06/19 03:42:18;;;;;;;2.87;2.50;;;;;;;19.01;67.02;99017.84;4486003;32;20132;-70
2022/06/19 03:44:45;;;;;;;2.65;2.33;;;;;;;19.14;66.30;99018.81;4485819;31;20189;-70
2022/06/19 03:47:19;;;;;;;2.30;2.10;;;;;;;19.28;66.68;99033.06;4485692;32;20100;-71
2022/06/19 03:49:48;;;;;;;4.60;2.45;;;;;;;19.40;66.75;99025.44;4485695;32;20093;-70
2022/06/19 03:52:16;;;;;;;3.53;2.20;;;;;;;19.50;66.26;99023.31;4485871;31;20084;-71
2022/06/19 03:54:43;;;;;;;3.22;2.45;;;;;;;19.62;66.32;99025.44;4485883;31;20107;-71
2022/06/19 03:57:14;;;;;;;3.87;2.37;;;;;;;19.75;66.11;99027.44;4485711;32;20147;-70
2022/06/19 03:59:42;;;;;;;2.40;2.20;;;;;;;19.83;66.82;99022.00;4485951;31;20092;-70
2022/06/19 04:02:10;;;;;;;3.17;2.30;;;;;;;19.97;66.42;99028.25;4485869;31;20092;-71
2022/06/19 04:04:42;;;;;;;2.62;2.40;;;;;;;20.06;66.50;99027.13;4485678;31;20107;-70
2022/06/19 04:07:14;;;;;;;3.12;2.20;;;;;;;20.14;65.79;99026.16;4485789;32;20096;-70
2022/06/19 04:09:42;;;;;;;2.50;2.30;;;;;;;20.21;66.86;99019.88;4485605;31;20089;-71
2022/06/19 04:12:10;;;;;;;3.95;2.20;;;;;;;20.33;68.52;99019.34;4485837;31;20469;-70
2022/06/19 04:14:37;;;;;;;2.80;2.28;;;;;;;20.44;67.52;99024.13;4485568;31;20123;-70
2022/06/19 04:17:05;;;;;;;6.03;2.30;;;;;;;20.51;66.70;99021.50;4485537;32;20124;-71
2022/06/19 04:19:33;;;;;;;10.25;2.20;;;;;;;20.57;65.69;99020.72;4485487;32;20096;-71
2022/06/19 04:22:00;;;;;;;8.43;2.10;;;;;;;20.67;67.01;99020.41;4485569;31;20100;-71
2022/06/19 04:24:28;;;;;;;5.10;2.30;;;;;;;20.76;65.50;99021.88;4485512;32;20502;-70
2022/06/19 04:26:55;;;;;;;2.50;2.30;;;;;;;20.91;67.33;99019.91;4485648;31;20100;-71
2022/06/19 04:29:22;;;;;;;6.53;2.70;;;;;;;21.05;64.75;99017.31;4485504;31;20480;-71
2022/06/19 04:31:50;;;;;;;3.83;3.00;;;;;;;21.19;63.86;99005.66;4485432;32;20519;-71
2022/06/19 04:34:17;;;;;;;3.58;2.55;;;;;;;21.34;63.24;99010.03;4485441;31;20157;-70
2022/06/19 04:36:44;;;;;;;4.57;2.40;;;;;;;21.51;63.34;99021.16;4485392;31;20100;-71
2022/06/19 04:39:12;;;;;;;3.80;2.20;;;;;;;21.73;62.91;99025.31;4485604;31;20123;-71
2022/06/19 04:41:43;;;;;;;7.97;2.80;;;;;;;21.86;61.52;99026.34;4485285;31;20084;-71
2022/06/19 04:44:14;;;;;;;4.18;2.20;;;;;;;22.06;61.62;99026.34;4485554;31;20152;-71
2022/06/19 04:46:43;;;;;;;2.53;2.08;;;;;;;22.21;59.42;99026.13;4485266;31;20089;-71
2022/06/19 04:49:12;;;;;;;3.60;2.20;;;;;;;22.32;60.06;99021.03;4485144;31;20115;-71
2022/06/19 04:51:39;;;;;;;4.18;2.40;;;;;;;22.50;60.84;99031.06;4485306;31;20092;-71
2022/06/19 04:54:07;;;;;;;3.75;2.20;;;;;;;22.58;58.85;99027.34;4485351;32;20149;-71
2022/06/19 04:56:35;;;;;;;3.30;1.95;;;;;;;22.61;57.59;99028.78;4485315;32;20092;-71
2022/06/19 04:59:03;;;;;;;3.03;2.05;;;;;;;22.78;56.92;99029.94;4485226;31;20450;-71
2022/06/19 05:01:33;;;;;;;2.35;1.92;;;;;;;22.89;56.41;99027.66;4484066;32;20154;-71
2022/06/19 05:04:03;;;;;;;5.05;2.25;;;;;;;22.99;56.08;99033.37;4485236;32;20115;-71
2022/06/19 05:06:31;;;;;;;2.95;2.25;;;;;;;23.06;55.26;99031.53;4485312;32;20115;-71
2022/06/19 05:08:59;;;;;;;3.85;2.20;;;;;;;23.24;54.36;99038.88;4484136;32;20095;-70
2022/06/19 05:11:27;;;;;;;4.10;2.15;;;;;;;23.29;55.26;99036.38;4485178;31;20088;-71
2022/06/19 05:13:55;;;;;;;4.65;2.22;;;;;;;23.29;54.44;99038.22;4485499;31;20093;-71
2022/06/19 05:16:23;;;;;;;3.62;2.37;;;;;;;23.43;54.51;99041.66;4485009;31;20093;-71
2022/06/19 05:18:53;;;;;;;2.87;2.10;;;;;;;23.34;54.17;99047.22;4484996;31;20126;-71
2022/06/19 05:21:22;;;;;;;4.80;2.33;;;;;;;23.53;53.87;99044.69;4485219;32;20127;-71
2022/06/19 05:23:50;;;;;;;2.87;2.47;;;;;;;23.50;53.19;99037.91;4484905;31;20434;-71
2022/06/19 05:26:30;;;;;;;7.60;2.00;;;;;;;23.51;53.18;99044.91;4485223;31;20115;-71
2022/06/19 05:28:58;;;;;;;2.42;2.22;;;;;;;23.69;54.20;99046.00;4485047;31;20110;-71
2022/06/19 05:31:26;;;;;;;4.15;2.30;;;;;;;23.89;54.38;99048.56;4479305;32;20422;-71
2022/06/19 05:33:54;;;;;;;5.07;2.58;;;;;;;24.04;52.87;99050.94;4469195;32;20167;-71
2022/06/19 05:36:22;;;;;;;3.53;2.65;;;;;;;24.12;52.34;99042.66;4469392;32;20112;-71
2022/06/19 05:38:50;;;;;;;2.58;2.00;;;;;;;23.87;51.82;99048.78;4469284;32;20201;-71
2022/06/19 05:41:18;;;;;;;2.40;2.20;;;;;;;23.88;52.55;99046.97;4469110;32;20088;-71
2022/06/19 05:43:48;;;;;;;4.55;2.72;;;;;;;24.01;52.54;99044.19;4469241;32;20625;-71
2022/06/19 05:46:17;;;;;;;2.15;1.92;;;;;;;24.20;52.99;99046.91;4469320;32;20111;-71
2022/06/19 05:48:46;;;;;;;3.22;2.30;;;;;;;24.46;52.72;99048.50;4469084;32;20175;-71
2022/06/19 05:51:16;;;;;;;5.20;2.17;;;;;;;24.31;52.02;99048.06;4469269;32;20084;-71
2022/06/19 05:53:49;;;;;;;4.62;2.42;;;;;;;24.47;51.29;99052.00;4469294;32;20080;-71
2022/06/19 05:56:17;;;;;;;2.83;2.15;;;;;;;24.47;51.56;99052.84;4467266;32;20112;-71
2022/06/19 05:58:44;;;;;;;4.93;2.20;;;;;;;24.68;51.94;99058.84;4469075;32;20093;-71
2022/06/19 06:01:13;;;;;;;6.87;2.45;;;;;;;24.61;49.34;99059.72;4469114;32;20119;-71
2022/06/19 06:03:43;;;;;;;5.15;2.60;;;;;;;24.67;50.45;99058.03;4469130;32;20171;-71
2022/06/19 06:06:19;;;;;;;5.57;2.92;;;;;;;24.85;50.37;99054.53;4469032;32;20089;-71
2022/06/19 06:08:47;;;;;;;6.55;2.60;;;;;;;24.87;52.77;99057.81;4469252;32;20390;-71
2022/06/19 06:11:14;;;;;;;5.87;3.05;;;;;;;24.97;49.41;99050.06;4468868;32;20096;-71
2022/06/19 06:13:42;;;;;;;4.65;2.50;;;;;;;24.92;50.54;99049.09;4469171;32;20089;-71
2022/06/19 06:16:11;;;;;;;5.22;2.78;;;;;;;25.08;50.41;99055.72;4469003;32;20703;-71
2022/06/19 06:18:38;;;;;;;3.95;2.83;;;;;;;25.24;49.66;99057.78;4468985;32;20088;-71
2022/06/19 06:21:11;;;;;;;2.40;2.15;;;;;;;25.40;49.83;99048.31;4468931;32;20123;-71
2022/06/19 06:23:39;;;;;;;3.53;2.30;;;;;;;25.34;47.87;99054.59;4468783;32;20113;-71
2022/06/19 06:26:13;;;;;;;3.28;2.40;;;;;;;25.51;47.15;99057.44;4469028;32;20119;-71
2022/06/19 06:28:44;;;;;;;4.55;2.28;;;;;;;25.51;45.76;99062.81;4468963;32;20104;-71
2022/06/19 06:31:11;;;;;;;4.15;2.80;;;;;;;25.50;46.67;99066.56;4471568;32;20104;-71
2022/06/19 06:33:39;;;;;;;3.78;2.37;;;;;;;25.67;48.42;99072.91;4484361;31;20152;-71
2022/06/19 06:36:07;;;;;;;3.75;2.42;;;;;;;25.35;48.65;99063.47;4484733;31;20089;-71
2022/06/19 06:38:35;;;;;;;5.32;2.83;;;;;;;25.19;47.83;99073.72;4484338;31;20172;-71
2022/06/19 06:41:05;;;;;;;4.30;2.10;;;;;;;25.36;49.63;99063.25;4484195;31;20097;-71
2022/06/19 06:43:35;;;;;;;3.53;2.12;;;;;;;25.67;46.22;99064.84;4484404;31;20076;-71
2022/06/19 06:46:07;;;;;;;3.65;2.40;;;;;;;25.71;43.89;99075.12;4484249;31;20150;-71
2022/06/19 06:48:35;;;;;;;3.92;2.10;;;;;;;25.80;46.96;99068.41;4484367;31;20084;-71
2022/06/19 06:51:07;;;;;;;3.62;2.40;;;;;;;25.92;48.31;99074.62;4484234;31;20164;-71
2022/06/19 06:53:34;;;;;;;5.07;2.13;;;;;;;25.93;46.42;99070.87;4484143;32;20111;-71
2022/06/19 06:56:02;;;;;;;2.35;1.73;;;;;;;26.07;44.97;99078.75;4484126;31;20100;-71
2022/06/19 06:58:30;;;;;;;1.90;1.60;;;;;;;25.99;41.66;99079.91;4483977;31;20088;-71
2022/06/19 07:00:57;;;;;;;3.47;1.90;;;;;;;25.96;41.63;99072.28;4484031;31;20590;-71
2022/06/19 07:03:24;;;;;;;3.65;2.22;;;;;;;26.04;43.28;99077.34;4484282;31;20084;-71
2022/06/19 07:05:51;;;;;;;4.22;2.72;;;;;;;26.00;43.11;99076.19;4483985;31;20104;-71
2022/06/19 07:08:19;;;;;;;4.78;2.30;;;;;;;26.18;46.88;99077.97;4485243;32;20161;-71
2022/06/19 07:10:46;;;;;;;4.78;2.58;;;;;;;26.23;47.37;99083.47;4485972;31;20084;-71
2022/06/19 07:13:14;;;;;;;3.17;2.53;;;;;;;26.36;46.04;99082.44;4486047;31;20092;-71
2022/06/19 07:15:41;;;;;;;3.80;2.37;;;;;;;26.19;48.29;99077.75;4486204;31;20123;-71
2022/06/19 07:18:15;;;;;;;4.57;2.12;;;;;;;26.22;47.77;99071.06;4485959;31;20080;-71
2022/06/19 07:20:43;;;;;;;6.35;2.30;;;;;;;26.20;46.86;99070.50;4485799;31;20096;-71
2022/06/19 07:23:10;;;;;;;4.35;2.22;;;;;;;26.46;46.47;99071.91;4485845;31;20235;-71
2022/06/19 07:25:37;;;;;;;4.47;2.17;;;;;;;26.56;45.82;99065.97;4486002;31;20161;-71
2022/06/19 07:28:05;;;;;;;3.37;2.60;;;;;;;26.74;47.39;99076.59;4486107;31;20100;-71
2022/06/19 07:30:32;;;;;;;6.90;2.20;;;;;;;26.68;46.15;99066.78;4486065;31;20540;-71
2022/06/19 07:32:59;;;;;;;3.67;2.25;;;;;;;26.88;45.75;99070.97;4485846;31;20089;-71
2022/06/19 07:35:27;;;;;;;3.72;2.60;;;;;;;26.72;44.15;99077.88;4485974;32;20123;-71
2022/06/19 07:37:54;;;;;;;3.33;2.40;;;;;;;26.74;44.29;99063.16;4485876;31;20080;-71
2022/06/19 07:40:21;;;;;;;3.87;2.22;;;;;;;26.68;46.34;99066.78;4485958;31;20104;-71
2022/06/19 07:42:48;;;;;;;4.00;2.08;;;;;;;26.84;42.04;99059.06;4485838;31;20118;-71
2022/06/19 07:45:16;;;;;;;2.15;1.95;;;;;;;26.77;43.98;99069.94;4485807;32;20378;-71
2022/06/19 07:50:29;;;;;;;3.95;2.50;;;;;;;26.89;42.24;99062.69;4485693;32;20130;-71
2022/06/19 07:52:56;;;;;;;4.25;2.10;;;;;;;26.94;42.22;99055.78;4486105;31;20115;-71
2022/06/19 07:55:30;;;;;;;3.85;1.83;;;;;;;27.03;40.17;99060.53;4485831;31;20084;-71
2022/06/19 07:58:00;;;;;;;2.97;2.03;;;;;;;27.30;42.48;99059.16;4485776;32;20193;-71
2022/06/19 08:00:30;;;;;;;2.78;1.87;;;;;;;27.25;40.22;99058.03;4485861;31;20088;-71
2022/06/19 08:02:58;;;;;;;3.65;1.87;;;;;;;27.47;41.81;99046.63;4485732;32;20076;-71
2022/06/19 08:05:28;;;;;;;3.65;1.95;;;;;;;27.50;38.12;99045.31;4485859;32;20092;-71
2022/06/19 08:07:57;;;;;;;2.30;2.10;;;;;;;27.56;40.66;99038.97;4485768;31;20104;-71
2022/06/19 08:10:29;;;;;;;4.53;2.00;;;;;;;27.32;39.39;99043.63;4485947;31;20155;-71
2022/06/19 08:12:56;;;;;;;2.15;1.92;;;;;;;27.52;39.01;99033.25;4485738;31;20080;-71
2022/06/19 08:15:23;;;;;;;4.55;2.22;;;;;;;27.59;40.09;99033.91;4485807;31;20252;-71
2022/06/19 08:17:50;;;;;;;3.12;2.00;;;;;;;27.60;40.62;99030.19;4485382;32;20131;-71
2022/06/19 08:20:19;;;;;;;3.33;3.03;;;;;;;27.52;38.67;99027.06;4484183;32;20084;-71
2022/06/19 08:22:47;;;;;;;2.37;2.17;;;;;;;27.63;40.16;99026.16;4485560;32;20124;-71
2022/06/19 08:25:16;;;;;;;4.53;2.20;;;;;;;27.76;39.35;99030.44;4485528;31;20113;-71
2022/06/19 08:27:47;;;;;;;3.35;2.00;;;;;;;27.75;39.04;99020.72;4485679;32;20118;-71
2022/06/19 08:30:33;;;;;;;2.85;2.20;;;;;;;27.91;38.85;99017.22;4485598;31;20084;-71
2022/06/19 08:33:07;;;;;;;5.22;2.22;;;;;;;27.94;40.65;99018.63;4484255;32;20520;-71
2022/06/19 08:35:46;;;;;;;4.55;2.30;;;;;;;27.97;38.46;99010.06;4485765;31;20111;-71
2022/06/19 08:38:20;;;;;;;7.82;1.87;;;;;;;27.88;38.55;99014.22;4485637;31;20076;-71
2022/06/19 08:40:50;;;;;;;2.28;2.03;;;;;;;27.70;39.31;99015.25;4485893;32;20129;-71
2022/06/19 08:43:50;;;;;;;3.12;2.20;;;;;;;28.03;38.75;99022.56;4485432;31;20088;-71
2022/06/19 08:46:27;;;;;;;3.90;2.45;;;;;;;27.55;41.56;99016.59;4484280;32;20089;-71
2022/06/19 08:49:13;;;;;;;3.75;2.60;;;;;;;27.91;39.15;99019.09;4484118;32;20163;-71
2022/06/19 08:52:02;;;;;;;3.35;2.20;;;;;;;28.00;40.09;99019.56;4485494;31;20092;-71
2022/06/19 08:54:35;;;;;;;2.60;2.22;;;;;;;28.35;40.32;99019.25;4484095;32;20085;-71
2022/06/19 08:57:21;;;;;;;;;;;;;;;28.42;40.28;99011.81;4486107;31;20101;-71
2022/06/19 09:00:33;;;;;;;3.12;2.05;;;;;;;27.91;39.94;99019.91;4485573;31;20294;-71
2022/06/19 09:03:11;;;;;;;2.67;2.00;;;;;;;28.24;40.49;99007.53;4483617;32;20441;-71
2022/06/19 09:05:50;;;;;;;2.70;1.40;;;;;;;28.52;40.38;99013.81;4484052;32;20145;-71
2022/06/19 09:08:38;;;;;;;2.72;1.90;;;;;;;28.53;37.55;99012.78;4484076;32;20100;-71
2022/06/19 09:11:47;;;;;;;4.00;1.98;;;;;;;28.58;36.19;99020.91;4483957;32;20139;-71
2022/06/19 09:14:20;;;;;;;2.12;1.80;;;;;;;28.72;36.41;99021.44;4408425;32;20383;-71
2022/06/19 09:16:50;;;;;;;11.43;2.35;;;;;;;28.67;38.62;99010.56;4418296;32;78178;-71
2022/06/19 09:19:30;;;;;;;5.43;1.70;;;;;;;28.83;37.02;99008.88;4420434;32;20502;-71
2022/06/19 09:22:15;;;;;;;4.10;1.80;;;;;;;28.85;35.44;99010.25;4420627;32;20097;-71
2022/06/19 09:25:04;;;;;;;2.78;2.10;;;;;;;28.99;38.21;99001.75;4420636;32;20124;-71
2022/06/19 09:27:43;;;;;;;3.45;2.00;;;;;;;29.18;36.40;99004.97;4421007;32;20101;-71
2022/06/19 09:30:15;;;;;;;1.90;1.65;;;;;;;29.12;36.24;98998.69;4406960;32;20106;-71
2022/06/19 09:32:50;;;;;;;2.15;1.27;;;;;;;29.23;35.02;98990.72;4407950;32;20157;-71
2022/06/19 09:35:41;;;;;;;5.10;1.80;;;;;;;29.11;34.23;98983.56;4420747;32;20090;-71
2022/06/19 09:38:21;;;;;;;2.35;1.70;;;;;;;29.15;34.80;98982.00;4408266;32;20106;-71
2022/06/19 09:40:54;;;;;;;4.47;2.30;;;;;;;29.15;33.33;98992.78;4408181;32;20487;-71
2022/06/19 09:43:47;;;;;;;2.95;2.10;;;;;;;29.15;35.80;98991.97;4408185;32;20170;-71
2022/06/19 09:46:20;;;;;;;4.60;1.67;;;;;;;29.18;37.57;98994.16;4485141;31;20092;-71
2022/06/19 09:49:21;;;;;;;2.80;1.62;;;;;;;29.38;34.71;98989.00;4484809;32;20146;-71
2022/06/19 09:51:55;;;;;;;3.22;1.58;;;;;;;29.34;33.23;98995.16;4483933;32;20088;-71
2022/06/19 09:54:27;;;;;;;3.05;1.70;;;;;;;29.54;34.44;98995.34;4483875;32;20160;-71
2022/06/19 09:57:09;;;;;;;4.78;2.05;;;;;;;29.54;34.58;98992.66;4483708;32;20553;-71
2022/06/19 09:59:43;;;;;;;2.37;1.77;;;;;;;29.78;36.17;98984.22;4483513;32;20096;-71
2022/06/19 10:02:20;;;;;;;3.42;1.50;;;;;;;29.80;34.60;98984.78;4483773;32;20597;-71
2022/06/19 10:05:12;;;;;;;2.17;1.48;;;;;;;29.72;32.87;98977.13;4483685;32;20174;-71
2022/06/19 10:07:44;;;;;;;3.53;1.80;;;;;;;29.49;33.65;98975.59;4451076;32;20624;-71
2022/06/19 10:10:21;;;;;;;1.85;1.52;;;;;;;29.78;35.07;98978.81;4451037;32;20123;-71
2022/06/19 10:12:50;;;;;;;2.28;1.73;;;;;;;29.93;35.36;98971.91;4451095;32;20124;-71
2022/06/19 10:15:32;;;;;;;2.75;1.60;;;;;;;30.11;34.35;98974.19;4438429;32;20109;-71
2022/06/19 10:18:17;;;;;;;1.85;1.60;;;;;;;29.98;35.68;98975.47;4438215;32;20125;-71
2022/06/19 10:21:06;;;;;;;2.67;1.70;;;;;;;29.94;35.62;98973.56;4450857;32;20089;-71
2022/06/19 10:23:57;;;;;;;2.50;1.73;;;;;;;30.15;31.60;98959.09;4450850;32;20116;-71
2022/06/19 10:26:53;;;;;;;3.85;1.60;;;;;;;29.93;33.32;98951.13;4450967;32;20093;-71
2022/06/19 10:29:20;;;;;;;3.35;1.70;;;;;;;30.32;33.39;98958.13;4443227;32;20151;-71
2022/06/19 10:32:16;;;;;;;1.70;1.60;;;;;;;30.51;31.31;98962.03;4443938;32;20093;-71
2022/06/19 10:35:04;;;;;;;2.00;1.45;;;;;;;30.34;30.70;98950.53;4359484;32;20107;-71
2022/06/19 10:37:43;;;;;;;1.60;1.50;;;;;;;30.07;30.20;98936.09;4347202;32;20308;-71
2022/06/19 10:40:58;;;;;;;8.07;2.25;;;;;;;29.97;35.96;98957.63;4359711;32;20141;-71
2022/06/19 10:43:31;;;;;;;2.10;1.30;;;;;;;30.31;34.66;98938.38;4358342;32;20618;-71
2022/06/19 10:46:05;;;;;;;3.47;1.60;;;;;;;30.40;33.62;98936.84;4419720;32;20105;-71
2022/06/19 10:48:40;;;;;;;2.08;1.80;;;;;;;30.49;32.08;98934.41;4409333;32;20132;-71
2022/06/19 10:51:10;;;;;;;2.85;1.62;;;;;;;30.58;32.76;98926.63;4409062;32;20154;-71
2022/06/19 10:54:05;;;;;;;3.83;1.52;;;;;;;30.41;31.17;98924.13;4421796;32;20712;-71
2022/06/19 10:56:39;;;;;;;2.00;1.80;;;;;;;30.60;33.75;98916.38;4421713;32;20151;-71
2022/06/19 10:59:06;;;;;;;1.70;1.60;;;;;;;30.88;32.61;98915.06;4409060;32;20097;-71
2022/06/19 11:04:37;;;;;;;5.18;1.50;;;;;;;30.86;31.37;98906.44;4410917;32;20194;-71
2022/06/19 11:07:10;;;;;;;2.10;1.90;;;;;;;30.81;30.00;98908.28;4421707;32;20427;-71
2022/06/19 11:09:49;;;;;;;2.05;1.85;;;;;;;31.03;32.13;98908.12;4409107;32;20510;-71
2022/06/19 11:12:37;;;;;;;1.75;1.48;;;;;;;30.74;31.60;98905.84;4467907;32;20088;-71
2022/06/19 11:15:26;;;;;;;1.80;1.70;;;;;;;30.40;32.11;98914.38;4486252;31;20156;-71
2022/06/19 11:18:20;;;;;;;1.45;1.35;;;;;;;30.88;30.90;98906.16;4484665;32;20150;-71
2022/06/19 11:20:53;;;;;;;;;;;;;;;30.95;29.07;98910.22;4486404;31;20485;-71
2022/06/19 11:23:34;;;;;;;1.50;1.40;;;;;;;30.82;31.41;98899.91;4486001;31;19983;-71
2022/06/19 11:26:11;;;;;;;4.15;2.00;;;;;;;31.03;31.70;98902.69;4484819;32;20231;-71
2022/06/19 11:28:53;;;;;;;5.65;1.45;;;;;;;31.12;30.06;98896.47;4484891;32;20092;-71
2022/06/19 11:31:28;;;;;;;4.23;1.63;;;;;;;31.11;30.32;98894.03;4486059;31;20783;-71
2022/06/19 11:37:10;;;;;;;1.92;1.45;;;;;;;31.01;31.29;98875.06;4485951;32;20510;-71
2022/06/19 11:39:41;;;;;;;1.20;1.10;;;;;;;31.20;30.88;98880.78;4486041;32;20092;-71
2022/06/19 11:42:40;;;;;;;1.83;1.27;;;;;;;31.46;30.91;98882.41;4484760;32;20123;-72
2022/06/19 11:45:13;;;;;;;3.05;1.27;;;;;;;31.52;31.44;98883.19;4485944;31;20093;-71
2022/06/19 11:47:58;;;;;;;2.22;1.48;;;;;;;31.72;30.87;98884.28;4485890;31;20096;-71
2022/06/19 11:50:30;;;;;;;2.25;1.33;;;;;;;31.50;30.67;98877.25;4485818;31;20111;-71
2022/06/19 11:53:08;;;;;;;1.85;1.42;;;;;;;31.56;28.75;98881.63;4484226;32;20096;-72
2022/06/19 11:55:40;;;;;;;2.03;1.33;;;;;;;31.79;29.55;98874.00;4485926;31;20107;-71
2022/06/19 11:58:28;;;;;;;;;;;;;;;31.93;28.12;98875.06;4484962;32;20114;-71
2022/06/19 12:01:03;;;;;;;1.95;1.48;;;;;;;32.03;31.20;98874.19;4486244;31;19992;-71
2022/06/19 12:03:48;;;;;;;1.77;1.30;;;;;;;31.83;30.86;98873.16;4485738;31;20162;-71
2022/06/19 12:06:17;;;;;;;3.72;1.33;;;;;;;31.99;28.59;98875.81;4485734;31;20144;-71
2022/06/19 12:09:00;;;;;;;1.48;1.30;;;;;;;32.01;29.21;98868.25;4484491;32;20116;-71
2022/06/19 12:11:41;;;;;;;1.67;1.30;;;;;;;32.12;29.99;98859.00;4485656;31;20152;-71